createdAt,value
2019-01-14T00:01:27.733Z,94.00
2019-01-14T00:03:56.436Z,94.00
2019-01-14T00:06:25.159Z,93.90
2019-01-14T00:08:53.822Z,93.80
2019-01-14T00:11:22.493Z,93.70
2019-01-14T00:13:51.174Z,93.70
2019-01-14T00:16:19.812Z,93.70
2019-01-14T00:18:48.469Z,93.60
2019-01-14T00:21:17.172Z,93.50
2019-01-14T00:23:45.794Z,93.40
2019-01-14T00:26:14.484Z,93.50
2019-01-14T00:28:43.213Z,93.50
2019-01-14T00:31:11.883Z,93.40
2019-01-14T00:33:41.404Z,93.50
2019-01-14T00:36:17.258Z,93.50
2019-01-14T00:38:40.380Z,93.50
2019-01-14T00:41:09.079Z,93.40
2019-01-14T00:43:37.716Z,93.40
2019-01-14T00:46:06.372Z,93.40
2019-01-14T00:48:35.034Z,93.30
2019-01-14T00:51:03.722Z,93.20
2019-01-14T00:53:33.928Z,93.20
2019-01-14T00:56:02.626Z,93.30
2019-01-14T00:58:31.372Z,93.20
2019-01-14T01:01:00.025Z,93.10
2019-01-14T01:03:28.720Z,93.10
2019-01-14T01:05:57.376Z,93.10
2019-01-14T01:08:26.012Z,93.10
2019-01-14T01:10:54.673Z,93.10
2019-01-14T01:13:23.388Z,93.10
2019-01-14T01:15:52.045Z,93.10
2019-01-14T01:18:20.794Z,93.10
2019-01-14T01:20:49.678Z,93.20
2019-01-14T01:23:19.663Z,93.10
2019-01-14T01:25:49.200Z,93.20
2019-01-14T01:28:17.856Z,93.20
2019-01-14T01:30:56.837Z,93.10
2019-01-14T01:33:25.518Z,93.00
2019-01-14T01:35:54.293Z,92.90
2019-01-14T01:38:22.917Z,92.90
2019-01-14T01:40:51.565Z,92.80
2019-01-14T01:43:20.319Z,92.60
2019-01-14T01:45:48.971Z,92.40
2019-01-14T01:48:17.675Z,92.50
2019-01-14T01:50:46.357Z,92.40
2019-01-14T01:53:15.000Z,92.40
2019-01-14T01:55:43.689Z,92.50
2019-01-14T01:58:12.344Z,92.40
2019-01-14T02:00:41.388Z,92.40
2019-01-14T02:03:10.037Z,92.30
2019-01-14T02:05:38.704Z,92.20
2019-01-14T02:08:07.399Z,92.30
2019-01-14T02:10:36.077Z,92.20
2019-01-14T02:13:04.746Z,92.30
2019-01-14T02:15:33.391Z,92.40
2019-01-14T02:18:02.241Z,92.30
2019-01-14T02:20:30.898Z,92.30
2019-01-14T02:23:02.570Z,92.20
2019-01-14T02:25:31.239Z,92.10
2019-01-14T02:27:59.876Z,92.10
2019-01-14T02:30:28.573Z,92.00
2019-01-14T02:32:57.219Z,92.10
2019-01-14T02:35:25.887Z,92.10
2019-01-14T02:37:54.588Z,92.00
2019-01-14T02:40:23.197Z,92.20
2019-01-14T02:42:51.865Z,92.00
2019-01-14T02:45:20.509Z,91.90
2019-01-14T02:47:54.179Z,91.80
2019-01-14T02:50:24.431Z,91.80
2019-01-14T02:52:53.094Z,91.80
2019-01-14T02:55:21.795Z,91.70
2019-01-14T02:57:50.460Z,91.50
2019-01-14T03:00:24.080Z,91.60
2019-01-14T03:02:52.755Z,91.50
2019-01-14T03:05:21.453Z,91.40
2019-01-14T03:07:51.047Z,91.40
2019-01-14T03:10:19.691Z,91.30
2019-01-14T03:12:48.343Z,91.30
2019-01-14T03:15:17.932Z,91.40
2019-01-14T03:17:46.671Z,91.30
2019-01-14T03:20:16.542Z,91.10
2019-01-14T03:22:45.172Z,91.20
2019-01-14T03:25:14.214Z,90.90
2019-01-14T03:27:42.864Z,91.00
2019-01-14T03:30:15.196Z,90.80
2019-01-14T03:32:43.832Z,90.60
2019-01-14T03:35:12.459Z,90.40
2019-01-14T03:37:41.127Z,90.30
2019-01-14T03:40:14.391Z,90.30
2019-01-14T03:42:43.017Z,90.40
2019-01-14T03:45:12.467Z,90.30
2019-01-14T03:47:41.119Z,90.40
2019-01-14T03:50:12.832Z,90.40
2019-01-14T03:52:41.472Z,90.60
2019-01-14T03:55:10.167Z,90.60
2019-01-14T03:57:38.830Z,90.80
2019-01-14T04:00:13.337Z,90.80
2019-01-14T04:02:41.964Z,90.90
2019-01-14T04:05:10.931Z,90.80
2019-01-14T04:07:39.598Z,91.00
2019-01-14T04:10:15.888Z,91.00
2019-01-14T04:12:44.544Z,91.00
2019-01-14T04:15:15.450Z,90.90
2019-01-14T04:17:44.625Z,91.10
2019-01-14T04:20:16.412Z,90.90
2019-01-14T04:22:45.078Z,90.90
2019-01-14T04:25:13.682Z,91.00
2019-01-14T04:27:42.293Z,91.20
2019-01-14T04:30:19.487Z,91.10
2019-01-14T04:32:48.144Z,91.20
2019-01-14T04:35:17.028Z,91.20
2019-01-14T04:37:45.677Z,91.30
2019-01-14T04:40:17.248Z,91.30
2019-01-14T04:42:45.643Z,91.60
2019-01-14T04:45:17.314Z,91.50
2019-01-14T04:47:47.319Z,91.30
2019-01-14T04:50:17.888Z,91.20
2019-01-14T04:52:46.589Z,91.20
2019-01-14T04:55:15.290Z,91.20
2019-01-14T04:57:43.956Z,91.20
2019-01-14T05:00:18.151Z,91.30
2019-01-14T05:02:46.827Z,91.40
2019-01-14T05:05:15.664Z,91.30
2019-01-14T05:07:44.314Z,91.60
2019-01-14T05:10:16.109Z,91.40
2019-01-14T05:12:44.756Z,91.40
2019-01-14T05:15:13.489Z,91.20
2019-01-14T05:17:42.188Z,91.10
2019-01-14T05:20:22.304Z,91.00
2019-01-14T05:22:51.836Z,91.20
2019-01-14T05:25:20.530Z,91.00
2019-01-14T05:27:49.233Z,90.90
2019-01-14T05:30:19.379Z,90.90
2019-01-14T05:32:49.171Z,91.00
2019-01-14T05:35:17.820Z,90.90
2019-01-14T05:37:48.892Z,90.80
2019-01-14T05:40:23.840Z,90.70
2019-01-14T05:42:54.210Z,91.00
2019-01-14T05:45:22.871Z,90.90
2019-01-14T05:47:51.520Z,90.80
2019-01-14T05:50:20.188Z,90.80
2019-01-14T05:53:03.122Z,90.90
2019-01-14T05:55:37.674Z,90.70
2019-01-14T05:58:06.346Z,90.80
2019-01-14T06:00:40.382Z,90.80
2019-01-14T06:03:09.023Z,90.70
2019-01-14T06:05:37.776Z,90.90
2019-01-14T06:08:06.439Z,90.80
2019-01-14T06:10:35.097Z,90.70
2019-01-14T06:13:03.738Z,90.90
2019-01-14T06:15:32.473Z,90.60
2019-01-14T06:18:01.165Z,90.90
2019-01-14T06:20:30.961Z,90.70
2019-01-14T06:22:59.603Z,90.80
2019-01-14T06:25:28.426Z,90.90
2019-01-14T06:27:58.148Z,90.60
2019-01-14T06:30:32.266Z,90.60
2019-01-14T06:33:01.120Z,90.00
2019-01-14T06:35:29.756Z,90.10
2019-01-14T06:37:58.447Z,90.10
2019-01-14T06:40:27.280Z,89.40
2019-01-14T06:42:55.931Z,89.50
2019-01-14T06:45:33.187Z,89.10
2019-01-14T06:48:00.756Z,88.80
2019-01-14T06:50:29.415Z,89.20
2019-01-14T06:52:58.128Z,89.10
2019-01-14T06:55:26.832Z,88.20
2019-01-14T06:57:57.892Z,88.00
2019-01-14T07:00:26.673Z,88.00
2019-01-14T07:02:55.416Z,87.80
2019-01-14T07:05:24.061Z,87.20
2019-01-14T07:08:17.125Z,87.80
2019-01-14T07:10:26.450Z,88.00
2019-01-14T07:12:55.123Z,87.90
2019-01-14T07:15:24.029Z,88.00
2019-01-14T07:17:55.788Z,88.10
2019-01-14T07:20:24.451Z,87.80
2019-01-14T07:22:54.723Z,88.20
2019-01-14T07:25:23.419Z,89.00
2019-01-14T07:27:55.087Z,87.80
2019-01-14T07:30:23.811Z,87.60
2019-01-14T07:32:57.063Z,88.00
2019-01-14T07:35:28.616Z,88.80
2019-01-14T07:37:57.235Z,89.10
2019-01-14T07:40:25.964Z,89.90
2019-01-14T07:42:54.594Z,90.10
2019-01-14T07:45:24.278Z,90.30
2019-01-14T07:47:53.016Z,90.40
2019-01-14T07:50:21.901Z,90.80
2019-01-14T07:52:53.604Z,90.70
2019-01-14T07:55:26.722Z,91.00
2019-01-14T07:58:00.391Z,91.00
2019-01-14T08:00:29.092Z,91.20
2019-01-14T08:03:04.599Z,91.10
2019-01-14T08:05:33.262Z,91.30
2019-01-14T08:08:01.944Z,91.50
2019-01-14T08:10:30.713Z,91.60
2019-01-14T08:12:59.398Z,91.70
2019-01-14T08:15:28.082Z,91.50
2019-01-14T08:17:58.549Z,91.70
2019-01-14T08:20:28.533Z,91.70
2019-01-14T08:22:57.211Z,91.60
2019-01-14T08:25:25.926Z,91.70
2019-01-14T08:27:54.580Z,91.90
2019-01-14T08:30:23.270Z,92.10
2019-01-14T08:32:52.044Z,92.20
2019-01-14T08:35:20.753Z,92.30
2019-01-14T08:37:49.408Z,92.50
2019-01-14T08:40:24.251Z,92.40
2019-01-14T08:42:53.046Z,92.40
2019-01-14T08:45:21.746Z,92.80
2019-01-14T08:47:50.441Z,93.00
2019-01-14T08:50:19.780Z,93.10
2019-01-14T08:52:48.490Z,93.10
2019-01-14T08:55:17.135Z,93.50
2019-01-14T08:57:54.475Z,93.60
2019-01-14T09:00:20.080Z,93.80
2019-01-14T09:02:52.942Z,93.90
2019-01-14T09:05:21.660Z,94.00
2019-01-14T09:07:50.294Z,93.90
2019-01-14T09:10:21.746Z,93.90
2019-01-14T09:12:50.524Z,93.90
2019-01-14T09:15:19.289Z,93.60
2019-01-14T09:17:48.045Z,93.40
2019-01-14T09:20:19.179Z,93.60
2019-01-14T09:22:48.930Z,93.70
2019-01-14T09:25:17.744Z,93.70
2019-01-14T09:27:52.270Z,94.00
2019-01-14T09:30:24.266Z,94.00
2019-01-14T09:32:54.585Z,94.00
2019-01-14T09:35:23.344Z,93.00
2019-01-14T09:37:52.147Z,93.30
2019-01-14T09:40:22.458Z,93.80
2019-01-14T09:42:52.738Z,93.80
2019-01-14T09:45:30.366Z,93.80
2019-01-14T09:47:59.074Z,94.10
2019-01-14T09:50:29.309Z,93.80
2019-01-14T09:52:59.600Z,93.70
2019-01-14T09:55:28.256Z,94.20
2019-01-14T09:57:56.955Z,94.50
2019-01-14T10:00:27.249Z,94.50
2019-01-14T10:02:56.874Z,94.60
2019-01-14T10:05:25.543Z,94.60
2019-01-14T10:07:54.211Z,94.80
2019-01-14T10:10:22.921Z,94.60
2019-01-14T10:12:53.923Z,94.80
2019-01-14T10:15:23.738Z,95.00
2019-01-14T10:17:58.094Z,94.70
2019-01-14T10:20:32.593Z,94.60
2019-01-14T10:23:01.257Z,94.70
2019-01-14T10:25:30.136Z,94.60
2019-01-14T10:27:58.903Z,94.60
2019-01-14T10:30:27.602Z,94.60
2019-01-14T10:32:57.382Z,95.00
2019-01-14T10:35:28.500Z,95.00
2019-01-14T10:38:00.142Z,95.20
2019-01-14T10:40:28.841Z,95.10
2019-01-14T10:42:57.624Z,95.00
2019-01-14T10:45:26.314Z,94.80
2019-01-14T10:47:56.601Z,95.00
2019-01-14T10:50:28.007Z,95.00
2019-01-14T10:52:57.000Z,94.80
2019-01-14T10:55:25.732Z,94.70
2019-01-14T10:57:55.808Z,94.90
2019-01-14T11:00:27.914Z,94.90
2019-01-14T11:02:56.759Z,94.80
2019-01-14T11:05:27.699Z,94.70
2019-01-14T11:08:10.589Z,94.70
2019-01-14T11:10:43.042Z,95.00
2019-01-14T11:16:12.318Z,95.00
2019-01-14T11:18:47.036Z,95.20
2019-01-14T11:21:15.689Z,95.10
2019-01-14T11:23:44.487Z,95.20
2019-01-14T11:26:13.466Z,95.20
2019-01-14T11:28:42.131Z,95.10
2019-01-14T11:31:10.787Z,94.90
2019-01-14T11:33:40.036Z,94.80
2019-01-14T11:36:08.701Z,94.90
2019-01-14T11:38:46.255Z,95.00
2019-01-14T11:41:15.105Z,95.10
2019-01-14T11:43:43.777Z,95.40
2019-01-14T11:46:12.473Z,95.60
2019-01-14T11:48:41.191Z,95.60
2019-01-14T11:51:09.869Z,95.70
2019-01-14T11:53:38.593Z,95.60
2019-01-14T11:56:07.241Z,95.70
2019-01-14T11:58:35.873Z,95.60
2019-01-14T12:01:04.495Z,95.70
2019-01-14T12:03:33.189Z,95.40
2019-01-14T12:06:01.857Z,95.20
2019-01-14T12:08:30.547Z,95.50
2019-01-14T12:10:59.217Z,95.60
2019-01-14T12:13:27.880Z,95.40
2019-01-14T12:15:56.579Z,95.40
2019-01-14T12:18:25.195Z,95.30
2019-01-14T12:20:53.848Z,95.30
2019-01-14T12:23:22.539Z,95.20
2019-01-14T12:25:51.206Z,95.00
2019-01-14T12:28:19.848Z,95.10
2019-01-14T12:30:48.531Z,95.30
2019-01-14T12:33:17.214Z,95.30
2019-01-14T12:35:45.836Z,95.20
2019-01-14T12:38:14.507Z,95.10
2019-01-14T12:40:43.156Z,95.00
2019-01-14T12:43:11.829Z,95.10
2019-01-14T12:45:40.502Z,95.10
2019-01-14T12:48:09.184Z,95.10
2019-01-14T12:50:39.409Z,95.30
2019-01-14T12:53:08.081Z,95.50
2019-01-14T12:55:36.737Z,95.50
2019-01-14T12:58:05.414Z,95.10
2019-01-14T13:00:34.055Z,95.00
2019-01-14T13:03:02.815Z,95.10
2019-01-14T13:05:31.721Z,94.90
2019-01-14T13:08:00.384Z,94.90
2019-01-14T13:10:29.038Z,95.20
2019-01-14T13:12:57.682Z,95.20
2019-01-14T13:15:27.116Z,95.20
2019-01-14T13:17:55.848Z,95.40
2019-01-14T13:20:24.464Z,95.20
2019-01-14T13:22:53.119Z,95.30
2019-01-14T13:25:24.816Z,95.30
2019-01-14T13:27:53.505Z,95.50
2019-01-14T13:30:26.837Z,95.60
2019-01-14T13:32:56.564Z,95.50
2019-01-14T13:35:25.236Z,95.50
2019-01-14T13:37:53.921Z,95.50
2019-01-14T13:40:22.557Z,95.40
2019-01-14T13:42:51.215Z,95.40
2019-01-14T13:45:21.510Z,95.40
2019-01-14T13:47:50.119Z,95.20
2019-01-14T13:50:20.673Z,95.20
2019-01-14T13:52:49.276Z,95.10
2019-01-14T13:55:17.940Z,95.20
2019-01-14T13:57:46.600Z,95.20
2019-01-14T14:00:18.130Z,95.20
2019-01-14T14:02:46.782Z,95.20
2019-01-14T14:05:15.423Z,95.20
2019-01-14T14:07:44.142Z,95.30
2019-01-14T14:10:15.661Z,95.30
2019-01-14T14:12:45.589Z,95.40
2019-01-14T14:15:16.035Z,95.30
2019-01-14T14:17:44.708Z,95.30
2019-01-14T14:20:15.964Z,95.40
2019-01-14T14:22:44.637Z,95.50
2019-01-14T14:25:14.989Z,95.60
2019-01-14T14:27:43.642Z,95.60
2019-01-14T14:30:23.568Z,95.60
2019-01-14T14:32:52.241Z,95.50
2019-01-14T14:35:20.878Z,95.60
2019-01-14T14:37:49.542Z,95.60
2019-01-14T14:40:18.218Z,95.90
2019-01-14T14:42:46.900Z,95.90
2019-01-14T14:45:16.117Z,96.00
2019-01-14T14:47:44.736Z,96.10
2019-01-14T14:50:18.251Z,96.10
2019-01-14T14:52:50.246Z,96.10
2019-01-14T14:55:21.890Z,96.10
2019-01-14T14:57:50.536Z,96.10
2019-01-14T15:00:21.612Z,96.10
2019-01-14T15:02:50.192Z,96.30
2019-01-14T15:05:18.840Z,96.30
2019-01-14T15:07:49.108Z,96.20
2019-01-14T15:10:19.510Z,96.20
2019-01-14T15:12:48.161Z,96.30
2019-01-14T15:15:18.417Z,96.30
2019-01-14T15:17:47.087Z,96.40
2019-01-14T15:20:18.437Z,96.40
2019-01-14T15:22:47.152Z,96.40
2019-01-14T15:25:15.833Z,96.40
2019-01-14T15:27:44.487Z,96.50
2019-01-14T15:30:23.341Z,96.40
2019-01-14T15:32:52.056Z,96.40
2019-01-14T15:35:24.823Z,96.50
2019-01-14T15:37:53.485Z,96.40
2019-01-14T15:40:22.160Z,96.30
2019-01-14T15:42:51.720Z,96.20
2019-01-14T15:45:23.725Z,96.30
2019-01-14T15:47:53.932Z,96.30
2019-01-14T15:50:22.567Z,96.40
2019-01-14T15:52:51.373Z,96.30
2019-01-14T15:55:24.551Z,96.20
2019-01-14T15:58:04.934Z,96.20
2019-01-14T16:00:33.690Z,96.30
2019-01-14T16:03:02.346Z,96.30
2019-01-14T16:05:32.593Z,96.20
2019-01-14T16:08:01.260Z,96.30
2019-01-14T16:10:29.902Z,96.20
2019-01-14T16:12:58.606Z,96.20
2019-01-14T16:15:27.304Z,96.20
2019-01-14T16:17:56.096Z,96.10
2019-01-14T16:20:26.143Z,96.20
2019-01-14T16:23:00.464Z,96.40
2019-01-14T16:25:29.266Z,96.20
2019-01-14T16:27:57.960Z,96.30
2019-01-14T16:30:26.652Z,96.20
2019-01-14T16:32:57.442Z,96.20
2019-01-14T16:35:25.733Z,96.20
2019-01-14T16:37:55.958Z,96.30
2019-01-14T16:40:24.646Z,96.60
2019-01-14T16:42:53.340Z,96.30
2019-01-14T16:45:22.690Z,96.20
2019-01-14T16:47:51.365Z,96.20
2019-01-14T16:50:20.092Z,96.20
2019-01-14T16:52:48.788Z,96.20
2019-01-14T16:55:22.531Z,96.40
2019-01-14T16:57:49.418Z,96.50
2019-01-14T17:00:18.821Z,96.60
2019-01-14T17:02:47.504Z,96.70
2019-01-14T17:05:16.729Z,96.70
2019-01-14T17:07:50.973Z,96.70
2019-01-14T17:10:25.165Z,96.70
2019-01-14T17:12:51.593Z,96.80
2019-01-14T17:15:20.256Z,96.80
2019-01-14T17:17:49.137Z,96.90
2019-01-14T17:20:18.985Z,97.00
2019-01-14T17:22:47.669Z,97.00
2019-01-14T17:25:16.441Z,97.00
2019-01-14T17:27:46.207Z,97.20
2019-01-14T17:33:23.562Z,96.90
2019-01-14T17:35:52.231Z,97.00
2019-01-14T17:38:48.291Z,96.90
2019-01-14T17:41:13.464Z,96.90
2019-01-14T17:43:49.557Z,96.90
2019-01-14T18:02:49.260Z,97.00
2019-01-14T18:05:20.693Z,96.90
2019-01-14T18:08:21.398Z,97.00
2019-01-14T18:11:09.065Z,97.00
2019-01-14T18:13:40.369Z,97.20
2019-01-14T18:16:09.323Z,97.20
2019-01-14T18:18:40.750Z,97.20
2019-01-14T18:21:13.770Z,97.00
2019-01-14T18:23:41.817Z,97.10
2019-01-14T18:26:12.173Z,97.10
2019-01-14T18:28:40.881Z,96.90
2019-01-14T18:31:09.547Z,96.90
2019-01-14T18:33:38.208Z,96.90
2019-01-14T18:36:06.866Z,97.00
2019-01-14T18:38:35.585Z,97.00
2019-01-14T18:41:04.295Z,97.00
2019-01-14T18:43:33.121Z,97.00
2019-01-14T18:46:01.841Z,97.00
2019-01-14T18:48:30.549Z,97.00
2019-01-14T18:54:28.176Z,97.00
2019-01-14T18:56:56.921Z,97.10
2019-01-14T18:59:26.712Z,97.20
2019-01-14T19:01:55.558Z,97.00
2019-01-14T19:04:27.573Z,97.00
2019-01-14T19:09:56.889Z,97.30
2019-01-14T19:22:03.729Z,96.80
2019-01-14T19:25:14.815Z,96.90
2019-01-14T19:44:41.804Z,96.80
2019-01-14T19:47:16.164Z,96.80
2019-01-14T19:49:44.909Z,96.60
2019-01-14T19:52:13.574Z,96.70
2019-01-14T19:54:44.982Z,96.70
2019-01-14T19:57:19.617Z,96.50
2019-01-14T19:59:43.924Z,96.60
2019-01-14T20:02:12.650Z,96.60
2019-01-14T20:04:42.001Z,96.60
2019-01-14T20:07:12.270Z,96.60
2019-01-14T20:09:41.016Z,96.60
2019-01-14T20:12:09.764Z,96.70
2019-01-14T20:14:40.024Z,96.60
2019-01-14T20:17:08.678Z,96.60
2019-01-14T20:19:37.309Z,96.70
2019-01-14T20:22:08.688Z,96.70
2019-01-14T20:25:09.779Z,96.60
2019-01-14T20:30:37.825Z,96.60
2019-01-14T20:36:39.921Z,96.70
2019-01-14T20:39:22.767Z,96.50
2019-01-14T20:45:08.248Z,96.50
2019-01-14T20:47:36.965Z,96.30
2019-01-14T20:50:08.282Z,96.30
2019-01-14T20:52:36.931Z,96.30
2019-01-14T20:55:06.455Z,96.30
2019-01-14T20:57:35.113Z,96.00
2019-01-14T21:00:08.610Z,96.00
2019-01-14T21:02:37.204Z,96.10
2019-01-14T21:05:07.901Z,96.30
2019-01-14T21:07:36.623Z,96.30
2019-01-14T21:10:08.301Z,96.40
2019-01-14T21:12:39.428Z,96.30
2019-01-14T21:15:10.819Z,96.30
2019-01-14T21:17:39.564Z,96.90
2019-01-14T21:20:11.466Z,96.80
2019-01-14T21:22:40.103Z,96.50
2019-01-14T21:25:08.716Z,95.50
2019-01-14T21:27:37.382Z,95.10
2019-01-14T21:30:11.352Z,96.00
2019-01-14T21:32:39.699Z,96.50
2019-01-14T21:35:08.379Z,96.50
2019-01-14T21:37:37.134Z,96.60
2019-01-14T21:40:08.583Z,96.80
2019-01-14T21:42:37.348Z,96.80
2019-01-14T21:45:11.722Z,97.00
2019-01-14T21:47:40.419Z,97.20
2019-01-14T21:50:16.948Z,97.20
2019-01-14T21:52:45.661Z,97.10
2019-01-14T21:55:19.190Z,97.30
2019-01-14T21:57:47.892Z,97.40
2019-01-14T22:00:24.521Z,97.50
2019-01-14T22:02:53.244Z,97.50
2019-01-14T22:05:21.884Z,97.40
2019-01-14T22:07:50.754Z,97.60
2019-01-14T22:10:23.923Z,97.70
2019-01-14T22:12:52.654Z,97.70
2019-01-14T22:15:21.299Z,97.70
2019-01-14T22:17:49.950Z,97.80
2019-01-14T22:20:26.122Z,97.90
2019-01-14T22:22:54.833Z,97.90
2019-01-14T22:25:23.480Z,97.80
2019-01-14T22:27:52.225Z,98.20
2019-01-14T22:30:28.884Z,98.00
2019-01-14T22:32:57.560Z,98.10
2019-01-14T22:35:26.240Z,98.20
2019-01-14T22:37:55.804Z,98.20
2019-01-14T22:40:24.469Z,98.20
2019-01-14T22:42:53.148Z,98.10
2019-01-14T22:45:21.812Z,98.20
2019-01-14T22:47:50.467Z,98.30
2019-01-14T22:50:19.391Z,98.40
2019-01-14T22:52:48.072Z,98.10
2019-01-14T22:55:16.725Z,98.20
2019-01-14T22:57:45.544Z,98.10
2019-01-14T23:00:55.650Z,98.20
2019-01-14T23:03:24.331Z,98.00
2019-01-14T23:05:53.029Z,98.20
2019-01-14T23:08:21.733Z,98.20
2019-01-14T23:10:50.990Z,98.20
2019-01-14T23:13:19.645Z,98.00
2019-01-14T23:15:48.298Z,97.90
2019-01-14T23:18:17.037Z,97.90
2019-01-14T23:20:45.676Z,98.00
2019-01-14T23:23:14.382Z,97.80
2019-01-14T23:25:43.038Z,97.90
2019-01-14T23:28:11.689Z,97.90
2019-01-14T23:30:41.947Z,97.80
2019-01-14T23:33:10.596Z,97.70
2019-01-14T23:35:39.231Z,97.70
2019-01-14T23:38:07.879Z,97.60
2019-01-14T23:40:36.523Z,97.80
2019-01-14T23:43:05.242Z,97.50
2019-01-14T23:45:33.884Z,97.30
2019-01-14T23:48:02.515Z,97.60
2019-01-14T23:50:31.191Z,97.40
2019-01-14T23:52:59.842Z,97.50
2019-01-14T23:55:30.107Z,97.70
2019-01-14T23:57:58.727Z,97.50
